sensor_id;sensor_type;location;lat;lon;timestamp;pressure;altitude;pressure_sealevel;temperature;humidity
12626;BME280;6378;42.684;23.372;2023-01-29T00:01:05;95189.78;;;0.82;100.00
12626;BME280;6378;42.684;23.372;2023-01-29T00:03:32;95152.31;;;0.65;100.00
12626;BME280;6378;42.684;23.372;2023-01-29T00:05:58;95201.34;;;0.91;100.00
12626;BME280;6378;42.684;23.372;2023-01-29T00:08:24;95206.09;;;0.94;100.00
12626;BME280;6378;42.684;23.372;2023-01-29T00:10:50;95178.63;;;0.85;100.00
12626;BME280;6378;42.684;23.372;2023-01-29T00:13:15;95201.59;;;0.95;100.00
12626;BME280;6378;42.684;23.372;2023-01-29T00:15:41;95193.84;;;0.98;100.00
12626;BME280;6378;42.684;23.372;2023-01-29T00:18:06;95191.44;;;0.78;100.00
12626;BME280;6378;42.684;23.372;2023-01-29T00:20:32;95218.84;;;0.92;100.00
12626;BME280;6378;42.684;23.372;2023-01-29T00:22:58;95169.81;;;0.66;100.00
12626;BME280;6378;42.684;23.372;2023-01-29T00:25:23;95207.41;;;0.97;100.00
12626;BME280;6378;42.684;23.372;2023-01-29T00:27:49;95213.75;;;0.96;100.00
12626;BME280;6378;42.684;23.372;2023-01-29T00:30:15;95183.84;;;0.66;100.00
12626;BME280;6378;42.684;23.372;2023-01-29T00:32:43;95213.28;;;0.88;100.00
12626;BME280;6378;42.684;23.372;2023-01-29T00:35:10;95185.22;;;0.59;100.00
12626;BME280;6378;42.684;23.372;2023-01-29T00:37:36;95218.84;;;0.92;100.00
12626;BME280;6378;42.684;23.372;2023-01-29T00:40:02;95217.78;;;0.88;100.00
12626;BME280;6378;42.684;23.372;2023-01-29T00:42:28;95193.03;;;0.74;100.00
12626;BME280;6378;42.684;23.372;2023-01-29T00:45:12;95223.03;;;0.93;100.00
12626;BME280;6378;42.684;23.372;2023-01-29T00:47:37;95215.63;;;0.95;100.00
12626;BME280;6378;42.684;23.372;2023-01-29T00:50:05;95224.09;;;0.97;100.00
12626;BME280;6378;42.684;23.372;2023-01-29T00:52:31;95220.91;;;0.95;100.00
12626;BME280;6378;42.684;23.372;2023-01-29T00:55:00;95200.66;;;0.80;100.00
12626;BME280;6378;42.684;23.372;2023-01-29T00:57:27;95215.72;;;0.85;100.00
12626;BME280;6378;42.684;23.372;2023-01-29T00:59:53;95218.13;;;0.81;100.00
12626;BME280;6378;42.684;23.372;2023-01-29T01:02:19;95183.09;;;0.61;100.00
12626;BME280;6378;42.684;23.372;2023-01-29T01:05:05;95225.47;;;0.90;100.00
12626;BME280;6378;42.684;23.372;2023-01-29T01:07:32;95212.56;;;0.83;100.00
12626;BME280;6378;42.684;23.372;2023-01-29T01:09:58;95219.72;;;0.82;100.00
12626;BME280;6378;42.684;23.372;2023-01-29T01:12:42;95203.34;;;0.75;100.00
12626;BME280;6378;42.684;23.372;2023-01-29T01:15:08;95209.81;;;0.64;100.00
12626;BME280;6378;42.684;23.372;2023-01-29T01:17:34;95217.88;;;0.83;100.00
12626;BME280;6378;42.684;23.372;2023-01-29T01:19:59;95214.88;;;0.90;100.00
12626;BME280;6378;42.684;23.372;2023-01-29T01:22:25;95203.75;;;0.93;100.00
12626;BME280;6378;42.684;23.372;2023-01-29T01:24:51;95186.56;;;0.85;100.00
12626;BME280;6378;42.684;23.372;2023-01-29T01:27:16;95212.19;;;0.95;100.00
12626;BME280;6378;42.684;23.372;2023-01-29T01:29:44;95212.69;;;0.97;100.00
12626;BME280;6378;42.684;23.372;2023-01-29T01:32:10;95204.19;;;1.00;100.00
12626;BME280;6378;42.684;23.372;2023-01-29T01:34:36;95179.00;;;0.73;100.00
12626;BME280;6378;42.684;23.372;2023-01-29T01:37:01;95204.53;;;0.88;100.00
12626;BME280;6378;42.684;23.372;2023-01-29T01:39:27;95209.91;;;0.83;100.00
12626;BME280;6378;42.684;23.372;2023-01-29T01:41:52;95213.09;;;0.80;100.00
12626;BME280;6378;42.684;23.372;2023-01-29T01:44:56;95212.06;;;0.81;100.00
12626;BME280;6378;42.684;23.372;2023-01-29T01:47:30;95170.69;;;0.56;100.00
12626;BME280;6378;42.684;23.372;2023-01-29T01:50:02;95204.91;;;0.81;100.00
12626;BME280;6378;42.684;23.372;2023-01-29T01:52:32;95209.66;;;0.79;100.00
12626;BME280;6378;42.684;23.372;2023-01-29T01:55:00;95207.38;;;0.73;100.00
12626;BME280;6378;42.684;23.372;2023-01-29T01:57:27;95219.78;;;0.77;100.00
12626;BME280;6378;42.684;23.372;2023-01-29T02:00:07;95220.53;;;0.83;100.00
12626;BME280;6378;42.684;23.372;2023-01-29T02:02:35;95228.88;;;0.95;100.00
12626;BME280;6378;42.684;23.372;2023-01-29T02:05:20;95233.94;;;0.92;100.00
12626;BME280;6378;42.684;23.372;2023-01-29T02:08:04;95237.63;;;0.96;100.00
12626;BME280;6378;42.684;23.372;2023-01-29T02:10:48;95221.09;;;1.04;100.00
12626;BME280;6378;42.684;23.372;2023-01-29T02:13:14;95210.91;;;0.92;100.00
12626;BME280;6378;42.684;23.372;2023-01-29T02:15:42;95197.69;;;0.87;100.00
12626;BME280;6378;42.684;23.372;2023-01-29T02:18:12;95226.13;;;1.05;100.00
12626;BME280;6378;42.684;23.372;2023-01-29T02:20:41;95227.72;;;1.06;100.00
12626;BME280;6378;42.684;23.372;2023-01-29T02:29:01;95232.00;;;1.02;100.00
12626;BME280;6378;42.684;23.372;2023-01-29T02:37:28;95216.94;;;0.98;100.00
12626;BME280;6378;42.684;23.372;2023-01-29T02:40:30;95243.56;;;1.11;100.00
12626;BME280;6378;42.684;23.372;2023-01-29T02:45:45;95254.38;;;1.15;100.00
12626;BME280;6378;42.684;23.372;2023-01-29T02:48:18;95254.13;;;1.16;100.00
12626;BME280;6378;42.684;23.372;2023-01-29T02:50:54;95254.72;;;1.08;100.00
12626;BME280;6378;42.684;23.372;2023-01-29T02:53:32;95253.88;;;1.13;100.00
12626;BME280;6378;42.684;23.372;2023-01-29T02:56:10;95249.59;;;1.17;100.00
12626;BME280;6378;42.684;23.372;2023-01-29T02:58:45;95244.84;;;1.14;100.00
12626;BME280;6378;42.684;23.372;2023-01-29T03:01:35;95248.75;;;1.21;100.00
12626;BME280;6378;42.684;23.372;2023-01-29T03:04:13;95211.69;;;0.93;100.00
12626;BME280;6378;42.684;23.372;2023-01-29T03:06:48;95241.97;;;1.10;100.00
12626;BME280;6378;42.684;23.372;2023-01-29T03:09:32;95249.03;;;1.20;100.00
12626;BME280;6378;42.684;23.372;2023-01-29T03:12:04;95254.91;;;1.17;100.00
12626;BME280;6378;42.684;23.372;2023-01-29T03:14:45;95242.50;;;1.12;100.00
12626;BME280;6378;42.684;23.372;2023-01-29T03:17:37;95252.97;;;1.22;100.00
12626;BME280;6378;42.684;23.372;2023-01-29T03:20:10;95257.69;;;1.30;100.00
12626;BME280;6378;42.684;23.372;2023-01-29T03:22:38;95253.53;;;1.19;100.00
12626;BME280;6378;42.684;23.372;2023-01-29T03:25:07;95256.72;;;1.21;100.00
12626;BME280;6378;42.684;23.372;2023-01-29T03:27:55;95260.38;;;1.25;100.00
12626;BME280;6378;42.684;23.372;2023-01-29T03:30:44;95250.25;;;1.04;100.00
12626;BME280;6378;42.684;23.372;2023-01-29T03:33:35;95227.34;;;0.89;100.00
12626;BME280;6378;42.684;23.372;2023-01-29T03:36:08;95265.84;;;1.10;100.00
12626;BME280;6378;42.684;23.372;2023-01-29T03:38:35;95248.38;;;1.04;100.00
12626;BME280;6378;42.684;23.372;2023-01-29T03:41:22;95259.41;;;1.16;100.00
12626;BME280;6378;42.684;23.372;2023-01-29T03:46:53;95259.59;;;1.25;100.00
12626;BME280;6378;42.684;23.372;2023-01-29T03:49:44;95258.22;;;1.27;100.00
12626;BME280;6378;42.684;23.372;2023-01-29T03:52:20;95265.41;;;1.27;100.00
12626;BME280;6378;42.684;23.372;2023-01-29T04:02:36;95258.84;;;1.19;100.00
12626;BME280;6378;42.684;23.372;2023-01-29T04:05:12;95258.84;;;1.19;100.00
12626;BME280;6378;42.684;23.372;2023-01-29T04:07:40;95245.28;;;0.97;100.00
12626;BME280;6378;42.684;23.372;2023-01-29T04:10:16;95262.59;;;1.13;100.00
12626;BME280;6378;42.684;23.372;2023-01-29T04:12:59;95266.63;;;1.11;100.00
12626;BME280;6378;42.684;23.372;2023-01-29T04:15:29;95261.50;;;1.19;100.00
12626;BME280;6378;42.684;23.372;2023-01-29T04:17:56;95238.34;;;1.01;100.00
12626;BME280;6378;42.684;23.372;2023-01-29T04:20:22;95237.78;;;1.04;100.00
12626;BME280;6378;42.684;23.372;2023-01-29T04:22:50;95269.41;;;1.24;100.00
12626;BME280;6378;42.684;23.372;2023-01-29T04:25:19;95275.13;;;1.37;100.00
12626;BME280;6378;42.684;23.372;2023-01-29T04:27:59;95268.50;;;1.34;100.00
12626;BME280;6378;42.684;23.372;2023-01-29T04:33:32;95274.19;;;1.22;100.00
12626;BME280;6378;42.684;23.372;2023-01-29T04:36:06;95276.84;;;1.22;100.00
12626;BME280;6378;42.684;23.372;2023-01-29T04:41:36;95248.66;;;1.03;100.00
12626;BME280;6378;42.684;23.372;2023-01-29T04:49:34;95282.84;;;1.04;100.00
12626;BME280;6378;42.684;23.372;2023-01-29T04:52:20;95277.28;;;1.06;100.00
12626;BME280;6378;42.684;23.372;2023-01-29T04:54:59;95281.75;;;1.10;100.00
12626;BME280;6378;42.684;23.372;2023-01-29T05:00:27;95282.56;;;1.06;100.00
12626;BME280;6378;42.684;23.372;2023-01-29T05:02:55;95279.25;;;0.90;100.00
12626;BME280;6378;42.684;23.372;2023-01-29T05:05:21;95291.84;;;1.03;100.00
12626;BME280;6378;42.684;23.372;2023-01-29T05:07:47;95291.31;;;1.06;100.00
12626;BME280;6378;42.684;23.372;2023-01-29T05:10:15;95288.16;;;1.04;100.00
12626;BME280;6378;42.684;23.372;2023-01-29T05:12:45;95288.16;;;1.04;100.00
12626;BME280;6378;42.684;23.372;2023-01-29T05:15:18;95297.63;;;1.10;100.00
12626;BME280;6378;42.684;23.372;2023-01-29T05:17:46;95294.63;;;1.22;100.00
12626;BME280;6378;42.684;23.372;2023-01-29T05:20:11;95294.63;;;1.22;100.00
12626;BME280;6378;42.684;23.372;2023-01-29T05:22:39;95296.66;;;1.30;100.00
12626;BME280;6378;42.684;23.372;2023-01-29T05:25:26;95296.66;;;1.30;100.00
12626;BME280;6378;42.684;23.372;2023-01-29T05:27:52;95291.94;;;1.27;100.00
12626;BME280;6378;42.684;23.372;2023-01-29T05:30:52;95299.13;;;1.21;100.00
12626;BME280;6378;42.684;23.372;2023-01-29T05:33:28;95307.13;;;1.16;100.00
12626;BME280;6378;42.684;23.372;2023-01-29T05:35:54;95305.50;;;1.20;100.00
12626;BME280;6378;42.684;23.372;2023-01-29T05:38:21;95289.66;;;1.15;100.00
12626;BME280;6378;42.684;23.372;2023-01-29T05:40:47;95307.25;;;1.30;100.00
12626;BME280;6378;42.684;23.372;2023-01-29T05:43:18;95257.69;;;1.02;100.00
12626;BME280;6378;42.684;23.372;2023-01-29T05:45:51;95313.84;;;1.33;100.00
12626;BME280;6378;42.684;23.372;2023-01-29T05:48:17;95272.47;;;1.08;100.00
12626;BME280;6378;42.684;23.372;2023-01-29T05:50:43;95305.09;;;1.32;100.00
12626;BME280;6378;42.684;23.372;2023-01-29T05:53:08;95310.84;;;1.44;100.00
12626;BME280;6378;42.684;23.372;2023-01-29T05:55:34;95304.94;;;1.23;100.00
12626;BME280;6378;42.684;23.372;2023-01-29T05:57:59;95315.00;;;1.26;100.00
12626;BME280;6378;42.684;23.372;2023-01-29T06:00:25;95319.25;;;1.22;100.00
12626;BME280;6378;42.684;23.372;2023-01-29T06:02:50;95316.06;;;1.25;100.00
12626;BME280;6378;42.684;23.372;2023-01-29T06:05:16;95330.34;;;1.29;100.00
12626;BME280;6378;42.684;23.372;2023-01-29T06:07:41;95319.72;;;1.29;100.00
12626;BME280;6378;42.684;23.372;2023-01-29T06:10:12;95328.47;;;1.30;100.00
12626;BME280;6378;42.684;23.372;2023-01-29T06:12:38;95338.25;;;1.35;100.00
12626;BME280;6378;42.684;23.372;2023-01-29T06:15:03;95318.72;;;1.25;100.00
12626;BME280;6378;42.684;23.372;2023-01-29T06:17:29;95342.44;;;1.41;100.00
12626;BME280;6378;42.684;23.372;2023-01-29T06:19:55;95328.94;;;1.37;100.00
12626;BME280;6378;42.684;23.372;2023-01-29T06:22:20;95347.44;;;1.42;100.00
12626;BME280;6378;42.684;23.372;2023-01-29T06:24:45;95325.03;;;1.29;100.00
12626;BME280;6378;42.684;23.372;2023-01-29T06:27:11;95353.22;;;1.49;100.00
12626;BME280;6378;42.684;23.372;2023-01-29T06:29:36;95357.72;;;1.49;100.00
12626;BME280;6378;42.684;23.372;2023-01-29T06:32:02;95357.16;;;1.52;100.00
12626;BME280;6378;42.684;23.372;2023-01-29T06:34:27;95359.88;;;1.47;100.00
12626;BME280;6378;42.684;23.372;2023-01-29T06:36:52;95357.72;;;1.49;100.00
12626;BME280;6378;42.684;23.372;2023-01-29T06:39:18;95363.50;;;1.56;100.00
12626;BME280;6378;42.684;23.372;2023-01-29T06:41:43;95354.63;;;1.70;100.00
12626;BME280;6378;42.684;23.372;2023-01-29T06:44:09;95373.69;;;1.72;100.00
12626;BME280;6378;42.684;23.372;2023-01-29T06:46:35;95371.56;;;1.74;100.00
12626;BME280;6378;42.684;23.372;2023-01-29T06:49:00;95347.50;;;1.66;100.00
12626;BME280;6378;42.684;23.372;2023-01-29T06:51:25;95373.75;;;1.91;100.00
12626;BME280;6378;42.684;23.372;2023-01-29T06:53:51;95367.41;;;1.87;100.00
12626;BME280;6378;42.684;23.372;2023-01-29T06:56:19;95366.72;;;1.77;100.00
12626;BME280;6378;42.684;23.372;2023-01-29T06:58:44;95368.84;;;1.80;100.00
12626;BME280;6378;42.684;23.372;2023-01-29T07:01:10;95388.69;;;1.82;100.00
12626;BME280;6378;42.684;23.372;2023-01-29T07:03:36;95386.56;;;1.84;100.00
12626;BME280;6378;42.684;23.372;2023-01-29T07:06:03;95381.72;;;1.91;100.00
12626;BME280;6378;42.684;23.372;2023-01-29T07:08:28;95390.66;;;2.00;100.00
12626;BME280;6378;42.684;23.372;2023-01-29T07:11:00;95383.28;;;1.92;100.00
12626;BME280;6378;42.684;23.372;2023-01-29T07:13:26;95390.09;;;2.03;100.00
12626;BME280;6378;42.684;23.372;2023-01-29T07:15:51;95357.38;;;1.84;100.00
12626;BME280;6378;42.684;23.372;2023-01-29T07:18:17;95307.22;;;1.35;100.00
12626;BME280;6378;42.684;23.372;2023-01-29T07:20:42;95389.50;;;1.83;100.00
12626;BME280;6378;42.684;23.372;2023-01-29T07:23:13;95393.84;;;1.97;100.00
12626;BME280;6378;42.684;23.372;2023-01-29T07:25:39;95397.41;;;1.88;100.00
12626;BME280;6378;42.684;23.372;2023-01-29T07:28:05;95394.19;;;1.91;100.00
12626;BME280;6378;42.684;23.372;2023-01-29T07:30:31;95389.94;;;1.66;100.00
12626;BME280;6378;42.684;23.372;2023-01-29T07:33:03;95403.00;;;1.86;100.00
12626;BME280;6378;42.684;23.372;2023-01-29T07:35:29;95405.28;;;1.69;100.00
12626;BME280;6378;42.684;23.372;2023-01-29T07:37:55;95402.28;;;1.81;100.00
12626;BME280;6378;42.684;23.372;2023-01-29T07:40:20;95412.72;;;2.43;100.00
12626;BME280;6378;42.684;23.372;2023-01-29T07:42:45;95405.75;;;2.05;100.00
12626;BME280;6378;42.684;23.372;2023-01-29T07:45:11;95390.25;;;1.88;100.00
12626;BME280;6378;42.684;23.372;2023-01-29T07:47:37;95401.38;;;1.90;100.00
12626;BME280;6378;42.684;23.372;2023-01-29T07:50:03;95410.84;;;1.96;100.00
12626;BME280;6378;42.684;23.372;2023-01-29T07:52:30;95381.00;;;1.86;100.00
12626;BME280;6378;42.684;23.372;2023-01-29T07:54:56;95411.19;;;1.90;100.00
12626;BME280;6378;42.684;23.372;2023-01-29T07:57:22;95417.31;;;1.90;100.00
12626;BME280;6378;42.684;23.372;2023-01-29T07:59:47;95407.75;;;1.89;100.00
12626;BME280;6378;42.684;23.372;2023-01-29T08:02:13;95414.03;;;1.98;100.00
12626;BME280;6378;42.684;23.372;2023-01-29T08:04:38;95409.84;;;1.92;100.00
12626;BME280;6378;42.684;23.372;2023-01-29T08:07:03;95417.63;;;1.84;100.00
12626;BME280;6378;42.684;23.372;2023-01-29T08:09:30;95417.69;;;1.79;100.00
12626;BME280;6378;42.684;23.372;2023-01-29T08:11:55;95424.53;;;1.85;100.00
12626;BME280;6378;42.684;23.372;2023-01-29T08:14:22;95418.66;;;1.88;100.00
12626;BME280;6378;42.684;23.372;2023-01-29T08:16:47;95433.44;;;1.94;100.00
12626;BME280;6378;42.684;23.372;2023-01-29T08:19:13;95421.25;;;1.93;100.00
12626;BME280;6378;42.684;23.372;2023-01-29T08:21:38;95431.59;;;1.94;100.00
12626;BME280;6378;42.684;23.372;2023-01-29T08:24:04;95409.78;;;2.21;100.00
12626;BME280;6378;42.684;23.372;2023-01-29T08:26:29;95433.75;;;2.16;100.00
12626;BME280;6378;42.684;23.372;2023-01-29T08:28:55;95429.28;;;2.11;100.00
12626;BME280;6378;42.684;23.372;2023-01-29T08:31:20;95432.22;;;2.10;100.00
12626;BME280;6378;42.684;23.372;2023-01-29T08:33:45;95427.41;;;2.36;100.00
12626;BME280;6378;42.684;23.372;2023-01-29T08:36:11;95441.53;;;2.55;100.00
12626;BME280;6378;42.684;23.372;2023-01-29T08:38:36;95435.03;;;2.42;100.00
12626;BME280;6378;42.684;23.372;2023-01-29T08:41:02;95429.44;;;2.20;100.00
12626;BME280;6378;42.684;23.372;2023-01-29T08:43:27;95434.53;;;2.16;100.00
12626;BME280;6378;42.684;23.372;2023-01-29T08:45:54;95405.69;;;1.81;100.00
12626;BME280;6378;42.684;23.372;2023-01-29T08:48:22;95445.63;;;2.24;100.00
12626;BME280;6378;42.684;23.372;2023-01-29T08:50:48;95447.47;;;2.23;100.00
12626;BME280;6378;42.684;23.372;2023-01-29T08:53:13;95448.88;;;2.15;100.00
12626;BME280;6378;42.684;23.372;2023-01-29T08:55:39;95403.50;;;1.88;100.00
12626;BME280;6378;42.684;23.372;2023-01-29T08:58:09;95448.44;;;2.08;100.00
12626;BME280;6378;42.684;23.372;2023-01-29T09:00:36;95457.50;;;2.02;100.00
12626;BME280;6378;42.684;23.372;2023-01-29T09:03:02;95453.47;;;2.10;100.00
12626;BME280;6378;42.684;23.372;2023-01-29T09:05:28;95457.53;;;2.26;100.00
12626;BME280;6378;42.684;23.372;2023-01-29T09:07:55;95461.72;;;2.08;100.00
12626;BME280;6378;42.684;23.372;2023-01-29T09:10:21;95453.56;;;2.00;100.00
12626;BME280;6378;42.684;23.372;2023-01-29T09:12:47;95458.03;;;2.04;100.00
12626;BME280;6378;42.684;23.372;2023-01-29T09:15:12;95457.25;;;2.04;100.00
12626;BME280;6378;42.684;23.372;2023-01-29T09:17:37;95449.22;;;2.09;100.00
12626;BME280;6378;42.684;23.372;2023-01-29T09:20:03;95454.66;;;2.23;100.00
12626;BME280;6378;42.684;23.372;2023-01-29T09:22:31;95458.53;;;2.30;100.00
12626;BME280;6378;42.684;23.372;2023-01-29T09:24:57;95458.53;;;2.30;100.00
12626;BME280;6378;42.684;23.372;2023-01-29T09:27:23;95453.34;;;2.20;100.00
12626;BME280;6378;42.684;23.372;2023-01-29T09:29:49;95429.53;;;2.15;100.00
12626;BME280;6378;42.684;23.372;2023-01-29T09:32:14;95450.56;;;2.06;100.00
12626;BME280;6378;42.684;23.372;2023-01-29T09:34:40;95449.09;;;1.95;100.00
12626;BME280;6378;42.684;23.372;2023-01-29T09:37:05;95455.78;;;2.16;100.00
12626;BME280;6378;42.684;23.372;2023-01-29T09:39:31;95452.38;;;2.11;100.00
12626;BME280;6378;42.684;23.372;2023-01-29T09:44:48;95434.16;;;2.04;100.00
12626;BME280;6378;42.684;23.372;2023-01-29T09:47:18;95438.81;;;1.89;100.00
12626;BME280;6378;42.684;23.372;2023-01-29T09:49:51;95414.41;;;1.87;100.00
12626;BME280;6378;42.684;23.372;2023-01-29T09:52:24;95438.81;;;2.36;100.00
12626;BME280;6378;42.684;23.372;2023-01-29T09:55:01;95423.13;;;2.16;100.00
12626;BME280;6378;42.684;23.372;2023-01-29T10:00:24;95434.94;;;2.29;100.00
12626;BME280;6378;42.684;23.372;2023-01-29T10:12:34;95426.72;;;2.25;100.00
12626;BME280;6378;42.684;23.372;2023-01-29T10:25:38;95424.75;;;2.36;100.00
12626;BME280;6378;42.684;23.372;2023-01-29T10:28:56;95418.28;;;2.23;100.00
12626;BME280;6378;42.684;23.372;2023-01-29T10:31:09;95411.00;;;2.34;100.00
12626;BME280;6378;42.684;23.372;2023-01-29T10:33:41;95415.13;;;2.40;100.00
12626;BME280;6378;42.684;23.372;2023-01-29T10:36:15;95413.91;;;2.32;100.00
12626;BME280;6378;42.684;23.372;2023-01-29T10:38:45;95412.97;;;2.23;100.00
12626;BME280;6378;42.684;23.372;2023-01-29T10:41:53;95398.38;;;2.21;100.00
12626;BME280;6378;42.684;23.372;2023-01-29T10:49:48;95398.69;;;2.19;100.00
12626;BME280;6378;42.684;23.372;2023-01-29T10:52:34;95394.16;;;2.20;100.00
12626;BME280;6378;42.684;23.372;2023-01-29T10:58:15;95396.78;;;2.43;100.00
12626;BME280;6378;42.684;23.372;2023-01-29T11:00:42;95289.78;;;1.77;100.00
12626;BME280;6378;42.684;23.372;2023-01-29T11:08:22;95366.97;;;2.28;100.00
12626;BME280;6378;42.684;23.372;2023-01-29T11:10:54;95387.97;;;2.48;100.00
12626;BME280;6378;42.684;23.372;2023-01-29T11:13:28;95378.63;;;2.50;100.00
12626;BME280;6378;42.684;23.372;2023-01-29T11:15:55;95373.03;;;2.52;100.00
12626;BME280;6378;42.684;23.372;2023-01-29T11:18:21;95380.47;;;2.50;100.00
12626;BME280;6378;42.684;23.372;2023-01-29T11:20:59;95379.06;;;2.39;100.00
12626;BME280;6378;42.684;23.372;2023-01-29T11:23:27;95391.09;;;2.50;100.00
12626;BME280;6378;42.684;23.372;2023-01-29T11:25:53;95375.09;;;2.55;100.00
12626;BME280;6378;42.684;23.372;2023-01-29T11:28:49;95371.81;;;2.63;100.00
12626;BME280;6378;42.684;23.372;2023-01-29T11:31:25;95374.69;;;2.67;100.00
12626;BME280;6378;42.684;23.372;2023-01-29T11:34:00;95371.03;;;2.81;100.00
12626;BME280;6378;42.684;23.372;2023-01-29T11:36:35;95359.47;;;2.72;100.00
12626;BME280;6378;42.684;23.372;2023-01-29T11:39:22;95354.22;;;2.67;100.00
12626;BME280;6378;42.684;23.372;2023-01-29T11:41:55;95351.72;;;2.76;100.00
12626;BME280;6378;42.684;23.372;2023-01-29T11:46:55;95338.97;;;2.91;100.00
12626;BME280;6378;42.684;23.372;2023-01-29T11:49:29;95342.19;;;2.88;100.00
12626;BME280;6378;42.684;23.372;2023-01-29T11:51:56;95351.19;;;2.74;100.00
12626;BME280;6378;42.684;23.372;2023-01-29T11:54:27;95320.16;;;2.69;100.00
12626;BME280;6378;42.684;23.372;2023-01-29T11:56:54;95347.53;;;2.70;100.00
12626;BME280;6378;42.684;23.372;2023-01-29T11:59:25;95341.06;;;2.76;100.00
12626;BME280;6378;42.684;23.372;2023-01-29T12:01:53;95332.03;;;2.77;100.00
12626;BME280;6378;42.684;23.372;2023-01-29T12:04:22;95345.38;;;2.90;100.00
12626;BME280;6378;42.684;23.372;2023-01-29T12:06:49;95346.53;;;2.84;100.00
12626;BME280;6378;42.684;23.372;2023-01-29T12:09:22;95339.47;;;2.93;100.00
12626;BME280;6378;42.684;23.372;2023-01-29T12:11:48;95304.16;;;2.74;100.00
12626;BME280;6378;42.684;23.372;2023-01-29T12:14:32;95338.44;;;3.08;100.00
12626;BME280;6378;42.684;23.372;2023-01-29T12:17:21;95333.06;;;2.94;100.00
12626;BME280;6378;42.684;23.372;2023-01-29T12:19:57;95342.19;;;2.88;100.00
12626;BME280;6378;42.684;23.372;2023-01-29T12:22:45;95341.34;;;2.74;100.00
12626;BME280;6378;42.684;23.372;2023-01-29T12:25:37;95342.72;;;2.72;100.00
12626;BME280;6378;42.684;23.372;2023-01-29T12:28:33;95339.44;;;2.61;100.00
12626;BME280;6378;42.684;23.372;2023-01-29T12:31:21;95333.09;;;2.38;100.00
12626;BME280;6378;42.684;23.372;2023-01-29T12:36:40;95340.41;;;2.46;100.00
12626;BME280;6378;42.684;23.372;2023-01-29T12:39:10;95343.81;;;2.52;100.00
12626;BME280;6378;42.684;23.372;2023-01-29T12:44:16;95337.56;;;2.43;100.00
12626;BME280;6378;42.684;23.372;2023-01-29T12:46:49;95287.16;;;2.19;100.00
12626;BME280;6378;42.684;23.372;2023-01-29T12:49:26;95329.88;;;2.60;100.00
12626;BME280;6378;42.684;23.372;2023-01-29T12:51:58;95338.13;;;2.77;100.00
12626;BME280;6378;42.684;23.372;2023-01-29T12:54:31;95326.78;;;2.53;100.00
12626;BME280;6378;42.684;23.372;2023-01-29T12:57:01;95349.25;;;2.60;100.00
12626;BME280;6378;42.684;23.372;2023-01-29T12:59:44;95335.44;;;2.40;100.00
12626;BME280;6378;42.684;23.372;2023-01-29T13:02:21;95336.56;;;2.39;100.00
12626;BME280;6378;42.684;23.372;2023-01-29T13:05:16;95312.19;;;2.32;100.00
12626;BME280;6378;42.684;23.372;2023-01-29T13:07:41;95333.75;;;2.68;100.00
12626;BME280;6378;42.684;23.372;2023-01-29T13:10:17;95336.81;;;2.75;100.00
12626;BME280;6378;42.684;23.372;2023-01-29T13:12:54;95334.47;;;2.73;100.00
12626;BME280;6378;42.684;23.372;2023-01-29T13:15:26;95319.81;;;2.57;100.00
12626;BME280;6378;42.684;23.372;2023-01-29T13:17:56;95321.47;;;2.53;100.00
12626;BME280;6378;42.684;23.372;2023-01-29T13:20:27;95334.16;;;2.75;100.00
12626;BME280;6378;42.684;23.372;2023-01-29T13:22:57;95329.31;;;2.63;100.00
12626;BME280;6378;42.684;23.372;2023-01-29T13:25:23;95340.63;;;2.50;100.00
12626;BME280;6378;42.684;23.372;2023-01-29T13:27:49;95329.53;;;2.48;100.00
12626;BME280;6378;42.684;23.372;2023-01-29T13:30:30;95332.72;;;2.45;100.00
12626;BME280;6378;42.684;23.372;2023-01-29T13:32:58;95341.06;;;2.57;100.00
12626;BME280;6378;42.684;23.372;2023-01-29T13:35:35;95349.84;;;2.57;100.00
12626;BME280;6378;42.684;23.372;2023-01-29T13:38:01;95359.09;;;2.60;100.00
12626;BME280;6378;42.684;23.372;2023-01-29T13:40:29;95349.41;;;2.69;100.00
12626;BME280;6378;42.684;23.372;2023-01-29T13:42:56;95329.16;;;2.54;100.00
12626;BME280;6378;42.684;23.372;2023-01-29T13:45:32;95348.25;;;2.75;100.00
12626;BME280;6378;42.684;23.372;2023-01-29T13:50:44;95339.78;;;2.54;100.00
12626;BME280;6378;42.684;23.372;2023-01-29T13:53:20;95355.56;;;2.46;100.00
12626;BME280;6378;42.684;23.372;2023-01-29T13:55:47;95355.88;;;2.44;100.00
12626;BME280;6378;42.684;23.372;2023-01-29T13:58:50;95356.16;;;2.43;100.00
12626;BME280;6378;42.684;23.372;2023-01-29T14:01:11;95350.84;;;2.43;100.00
12626;BME280;6378;42.684;23.372;2023-01-29T14:03:44;95334.69;;;2.15;100.00
12626;BME280;6378;42.684;23.372;2023-01-29T14:06:10;95346.63;;;2.18;100.00
12626;BME280;6378;42.684;23.372;2023-01-29T14:08:38;95367.81;;;2.23;100.00
12626;BME280;6378;42.684;23.372;2023-01-29T14:13:43;95360.81;;;2.08;100.00
12626;BME280;6378;42.684;23.372;2023-01-29T14:18:36;95371.56;;;1.98;100.00
12626;BME280;6378;42.684;23.372;2023-01-29T14:23:51;95376.75;;;2.08;100.00
12626;BME280;6378;42.684;23.372;2023-01-29T14:26:29;95358.41;;;1.88;100.00
12626;BME280;6378;42.684;23.372;2023-01-29T14:29:04;95381.78;;;2.10;100.00
12626;BME280;6378;42.684;23.372;2023-01-29T14:31:39;95387.91;;;2.05;100.00
12626;BME280;6378;42.684;23.372;2023-01-29T14:34:18;95395.59;;;2.07;100.00
12626;BME280;6378;42.684;23.372;2023-01-29T14:36:46;95391.09;;;2.07;100.00
12626;BME280;6378;42.684;23.372;2023-01-29T14:39:23;95394.16;;;2.20;100.00
12626;BME280;6378;42.684;23.372;2023-01-29T14:41:52;95391.88;;;2.32;100.00
12626;BME280;6378;42.684;23.372;2023-01-29T14:44:46;95401.69;;;2.31;100.00
12626;BME280;6378;42.684;23.372;2023-01-29T14:47:50;95398.78;;;2.33;100.00
12626;BME280;6378;42.684;23.372;2023-01-29T14:52:53;95397.25;;;2.27;100.00
12626;BME280;6378;42.684;23.372;2023-01-29T14:55:34;95384.81;;;2.22;100.00
12626;BME280;6378;42.684;23.372;2023-01-29T14:58:02;95394.13;;;2.43;100.00
12626;BME280;6378;42.684;23.372;2023-01-29T15:00:33;95392.41;;;2.34;100.00